Etusivu
METAR-TAF:

METAR-TAF

Lentoasemat :

Calvinia, Etelä-Afrikka

Leveyspiiri: 31-28-56S, Pituuspiiri: 19-45-43E, korkeus merenpinnasta: 977 m

Tämänhetkinen sää

Tämä raportti tehtiin 7 tuntia ja 36 minuuttia sitten, kello 09.45 UTC
Tuuli 5 kn pohjoisesta puuskistuen 15 kn:hen
Lämpötila 30°C
Kosteus 14%
Ilmanpaine 1018 hPa
Näkyvyys 10 km tai enemmän
ei pilviä alle 1500 m:ssä eikä cumulonimbus-pilviä

METAR: FACV 050945Z 01005G15KT CAVOK 30/M00 Q1018

Aika: 19:21 (17:21 UTC)


TAF: puuttuu

Säähavainnot ja -ennusteet yli 4000 lentoasemalta (METAR- ja TAF-raportit).

Käytössä olevat sääasemat on merkitty karttaan keltaisilla ja punaisilla pisteillä.

Aseta hiiri pisteen päälle nähdäksesi sääaseman nimen.

Klikkaa sitten nähdäksesi säähavainnot ja -ennusteet.

Kartan vaihtaminen: klikkaa mustalla rastilla varustettuja vihreitä pisteitä, niin voit zoomata sisään; viivalla varustettua vihreää pistettä, niin voit zoomata ulos tai vihreitä nuolia, niin pääset viereisille kartoille.


METAR-TAF: